KCLS/CLS METAR and TAF weather

Enter ICAO airport designator
Station Type Date Time Source
KCLS METAR 2024/04/15 09:55 UTC NOAA

KCLS 150955Z AUTO 20005KT 10SM OVC028 09/06 A3020 RMK AO2


Station Type Date Time Source
KCLS Decoded METAR 2024/04/15 09:55 UTC NOAA

Station name not available
Apr 15, 2024 - 05:55 AM EDT / 2024.04.15 0955 UTC
Wind: from the SSW (200 degrees) at 6 MPH (5 KT):0
Visibility: 10 mile(s):0
Sky conditions: overcast
Temperature: 48 F (9 C)
Dew Point: 42 F (6 C)
Relative Humidity: 81%
Pressure (altimeter): 30.2 in. Hg (1022 hPa)
ob: KCLS 150955Z AUTO 20005KT 10SM OVC028 09/06 A3020 RMK AO2
cycle: 10

Station Type Date Time Source
KCLS TAF UTC NOAA

Error!

Example: see airport list